createdAt,value
2019-04-20T00:01:32.000Z,81.10
2019-04-20T00:06:43.447Z,81.90
2019-04-20T00:11:59.205Z,81.30
2019-04-20T00:16:54.888Z,81.30
2019-04-20T00:22:39.287Z,80.10
2019-04-20T00:28:16.506Z,81.50
2019-04-20T00:33:40.020Z,82.20
2019-04-20T00:38:40.847Z,84.40
2019-04-20T00:43:42.561Z,85.00
2019-04-20T00:49:00.802Z,85.20
2019-04-20T00:54:09.605Z,85.10
2019-04-20T00:59:30.200Z,86.00
2019-04-20T01:04:47.921Z,86.50
2019-04-20T01:09:54.109Z,86.10
2019-04-20T01:15:05.589Z,86.50
2019-04-20T01:20:11.435Z,84.60
2019-04-20T01:25:28.497Z,84.20
2019-04-20T01:30:35.282Z,85.00
2019-04-20T01:35:53.586Z,85.50
2019-04-20T01:40:46.451Z,86.30
2019-04-20T01:46:03.306Z,87.00
2019-04-20T01:51:11.866Z,87.60
2019-04-20T01:56:27.709Z,86.10
2019-04-20T02:01:41.209Z,85.50
2019-04-20T02:06:53.452Z,85.70
2019-04-20T02:12:05.025Z,87.00
2019-04-20T02:17:15.101Z,91.20
2019-04-20T02:22:32.990Z,90.70
2019-04-20T02:27:30.822Z,89.30
2019-04-20T02:33:16.604Z,90.40
2019-04-20T02:38:40.172Z,90.40
2019-04-20T02:43:48.395Z,91.90
2019-04-20T02:48:40.051Z,92.30
2019-04-20T02:54:06.319Z,91.80
2019-04-20T02:59:27.083Z,91.40
2019-04-20T03:03:45.074Z,91.70
2019-04-20T03:09:09.132Z,92.60
2019-04-20T03:14:13.739Z,93.00
2019-04-20T03:19:28.834Z,93.60
2019-04-20T03:24:48.639Z,94.10
2019-04-20T03:30:40.170Z,94.20
2019-04-20T03:35:29.875Z,94.80
2019-04-20T03:40:24.332Z,95.20
2019-04-20T03:45:28.117Z,95.20
2019-04-20T03:50:56.447Z,95.20
2019-04-20T03:56:34.861Z,95.60
2019-04-20T04:02:28.557Z,96.20
2019-04-20T04:06:59.760Z,96.30
2019-04-20T04:12:56.857Z,96.50
2019-04-20T04:18:13.901Z,96.60
2019-04-20T04:23:33.633Z,97.20
2019-04-20T04:28:40.707Z,97.60
2019-04-20T04:33:55.753Z,97.50
2019-04-20T04:39:03.047Z,97.50
2019-04-20T04:44:09.641Z,97.90
2019-04-20T04:49:06.895Z,98.60
2019-04-20T04:54:16.328Z,98.60
2019-04-20T04:59:17.418Z,98.50
2019-04-20T05:05:05.727Z,98.20
2019-04-20T05:09:51.056Z,98.20
2019-04-20T05:15:14.386Z,98.40
2019-04-20T05:20:43.826Z,98.10
2019-04-20T05:26:27.187Z,97.70
2019-04-20T05:31:15.482Z,97.40
2019-04-20T05:36:45.198Z,97.00
2019-04-20T05:41:51.465Z,96.60
2019-04-20T05:47:01.050Z,96.30
2019-04-20T05:52:24.476Z,95.70
2019-04-20T05:57:25.120Z,95.20
2019-04-20T06:02:34.752Z,94.50
2019-04-20T06:07:43.075Z,93.30
2019-04-20T06:12:52.936Z,91.70
2019-04-20T06:18:20.256Z,89.10
2019-04-20T06:23:50.647Z,88.80
2019-04-20T06:28:46.176Z,87.90
2019-04-20T06:34:40.027Z,87.60
2019-04-20T06:39:40.356Z,87.10
2019-04-20T06:44:45.485Z,87.40
2019-04-20T06:50:00.476Z,87.10
2019-04-20T06:55:15.300Z,85.90
2019-04-20T07:00:49.660Z,86.00
2019-04-20T07:06:20.993Z,86.00
2019-04-20T07:11:16.114Z,86.30
2019-04-20T07:16:21.387Z,85.90
2019-04-20T07:28:40.834Z,84.90
2019-04-20T07:33:39.411Z,87.20
2019-04-20T07:38:56.656Z,88.00
2019-04-20T07:44:03.489Z,89.80
2019-04-20T07:49:08.277Z,89.70
2019-04-20T07:54:24.517Z,92.90
2019-04-20T07:59:13.942Z,91.80
2019-04-20T08:05:30.160Z,91.20
2019-04-20T08:10:53.684Z,92.00
2019-04-20T08:16:20.419Z,92.50
2019-04-20T08:21:20.517Z,91.20
2019-04-20T08:26:16.225Z,91.50
2019-04-20T08:31:50.482Z,91.80
2019-04-20T08:37:01.376Z,91.80
2019-04-20T08:42:10.576Z,91.00
2019-04-20T08:47:27.627Z,91.50
2019-04-20T08:52:51.416Z,90.10
2019-04-20T08:57:15.761Z,90.50
2019-04-20T09:02:23.933Z,88.10
2019-04-20T09:07:39.080Z,88.00
2019-04-20T09:12:57.371Z,86.50
2019-04-20T09:18:01.925Z,86.60
2019-04-20T09:23:27.251Z,84.90
2019-04-20T09:28:55.647Z,84.70
2019-04-20T09:34:37.034Z,83.70
2019-04-20T09:40:03.402Z,83.50
2019-04-20T09:44:57.556Z,83.00
2019-04-20T09:50:21.014Z,82.90
2019-04-20T09:55:33.768Z,81.40
2019-04-20T10:01:00.221Z,81.40
2019-04-20T10:06:01.311Z,80.50
2019-04-20T10:11:08.134Z,79.50
2019-04-20T10:16:15.658Z,79.20
2019-04-20T10:21:21.571Z,78.80
2019-04-20T10:26:28.089Z,79.00
2019-04-20T10:31:42.639Z,77.20
2019-04-20T10:37:03.908Z,77.50
2019-04-20T10:42:10.094Z,74.60
2019-04-20T10:47:18.951Z,74.20
2019-04-20T10:52:27.723Z,71.60
2019-04-20T10:57:37.516Z,73.90
2019-04-20T11:02:45.834Z,73.80
2019-04-20T11:07:54.713Z,71.80
2019-04-20T11:13:01.218Z,69.70
2019-04-20T11:18:07.426Z,68.50
2019-04-20T11:23:16.107Z,70.60
2019-04-20T11:28:24.061Z,70.20
2019-04-20T11:33:32.075Z,66.90
2019-04-20T11:38:38.698Z,66.50
2019-04-20T11:43:45.520Z,64.80
2019-04-20T11:48:52.102Z,61.90
2019-04-20T11:54:26.391Z,61.30
2019-04-20T11:59:34.730Z,62.60
2019-04-20T12:04:51.840Z,62.70
2019-04-20T12:10:12.049Z,60.20
2019-04-20T12:15:14.756Z,58.20
2019-04-20T12:20:22.821Z,52.80
2019-04-20T12:25:41.424Z,54.80
2019-04-20T12:30:48.669Z,57.40
2019-04-20T12:35:56.455Z,57.30
2019-04-20T12:41:04.899Z,56.10
2019-04-20T12:46:14.821Z,53.80
2019-04-20T12:51:19.644Z,52.80
2019-04-20T12:56:28.495Z,51.00
2019-04-20T13:01:39.619Z,50.70
2019-04-20T13:06:48.965Z,51.90
2019-04-20T13:12:10.205Z,51.60
2019-04-20T13:17:14.587Z,51.70
2019-04-20T13:22:22.925Z,52.80
2019-04-20T13:27:36.786Z,52.90
2019-04-20T13:32:46.122Z,54.80
2019-04-20T13:38:06.106Z,55.70
2019-04-20T13:43:17.593Z,52.80
2019-04-20T13:48:24.827Z,54.00
2019-04-20T13:53:30.603Z,51.40
2019-04-20T13:58:52.394Z,51.70
2019-04-20T14:04:10.691Z,50.70
2019-04-20T14:09:19.394Z,50.50
2019-04-20T14:14:25.862Z,51.60
2019-04-20T14:19:32.267Z,50.70
2019-04-20T14:24:40.331Z,49.60
2019-04-20T14:29:46.557Z,49.10
2019-04-20T14:34:53.265Z,48.50
2019-04-20T14:40:00.702Z,49.30
2019-04-20T14:45:08.975Z,47.10
2019-04-20T14:50:15.936Z,46.10
2019-04-20T14:55:24.116Z,48.20
2019-04-20T15:00:53.105Z,47.90
2019-04-20T15:06:02.057Z,47.90
2019-04-20T15:11:09.272Z,49.30
2019-04-20T15:16:15.154Z,48.40
2019-04-20T15:21:21.691Z,49.20
2019-04-20T15:26:28.955Z,49.90
2019-04-20T15:31:38.415Z,50.10
2019-04-20T15:37:23.271Z,50.50
2019-04-20T15:42:33.059Z,50.50
2019-04-20T15:47:40.439Z,50.40
2019-04-20T15:52:52.306Z,51.30
2019-04-20T15:57:57.679Z,50.70
2019-04-20T16:03:13.270Z,52.30
2019-04-20T16:08:36.698Z,52.30
2019-04-20T16:13:47.590Z,51.70
2019-04-20T16:18:52.712Z,52.10
2019-04-20T16:24:08.894Z,51.90
2019-04-20T16:29:17.706Z,53.50
2019-04-20T16:34:25.389Z,54.00
2019-04-20T16:39:34.327Z,57.20
2019-04-20T16:44:41.169Z,58.60
2019-04-20T16:49:48.821Z,58.50
2019-04-20T16:54:57.631Z,56.50
2019-04-20T17:00:09.475Z,55.40
2019-04-20T17:05:16.798Z,56.20
2019-04-20T17:10:23.844Z,56.30
2019-04-20T17:15:31.696Z,59.00
2019-04-20T17:20:41.008Z,61.30
2019-04-20T17:25:50.300Z,62.30
2019-04-20T17:31:37.858Z,62.10
2019-04-20T17:36:46.390Z,62.60
2019-04-20T17:42:12.590Z,62.80
2019-04-20T17:47:28.895Z,63.30
2019-04-20T17:52:44.106Z,63.80
2019-04-20T17:57:39.429Z,63.80
2019-04-20T18:03:12.363Z,64.30
2019-04-20T18:08:29.729Z,64.70
2019-04-20T18:13:31.919Z,65.10
2019-04-20T18:19:16.039Z,65.50
2019-04-20T18:24:42.436Z,65.80
2019-04-20T18:29:42.607Z,66.40
2019-04-20T18:34:52.363Z,66.00
2019-04-20T18:40:01.893Z,66.10
2019-04-20T18:45:21.681Z,66.30
2019-04-20T18:50:22.939Z,66.40
2019-04-20T18:55:36.881Z,66.20
2019-04-20T19:00:41.900Z,66.40
2019-04-20T19:05:47.482Z,66.60
2019-04-20T19:11:04.197Z,66.70
2019-04-20T19:16:22.766Z,66.50
2019-04-20T19:21:21.508Z,66.90
2019-04-20T19:26:29.101Z,66.60
2019-04-20T19:31:52.687Z,66.40
2019-04-20T19:37:00.284Z,65.60
2019-04-20T19:42:12.179Z,65.20
2019-04-20T19:47:28.810Z,63.90
2019-04-20T19:52:49.023Z,63.70
2019-04-20T19:57:48.832Z,63.00
2019-04-20T20:02:37.118Z,62.70
2019-04-20T20:07:49.358Z,62.10
2019-04-20T20:13:02.589Z,62.00
2019-04-20T20:18:23.169Z,62.30
2019-04-20T20:23:20.294Z,62.30
2019-04-20T20:28:37.106Z,62.30
2019-04-20T20:33:51.080Z,62.90
2019-04-20T20:38:46.852Z,62.10
2019-04-20T20:44:26.283Z,62.20
2019-04-20T20:49:38.365Z,62.40
2019-04-20T20:54:43.625Z,62.20
2019-04-20T21:00:17.713Z,62.70
2019-04-20T21:05:11.576Z,62.70
2019-04-20T21:10:33.080Z,62.60
2019-04-20T21:15:35.241Z,62.70
2019-04-20T21:21:06.142Z,63.10
2019-04-20T21:26:12.873Z,63.10
2019-04-20T21:31:23.538Z,63.40
2019-04-20T21:36:31.106Z,63.30
2019-04-20T21:41:40.741Z,63.70
2019-04-20T21:46:49.671Z,64.10
2019-04-20T21:52:06.833Z,64.30
2019-04-20T21:57:12.939Z,64.60
2019-04-20T22:02:26.415Z,64.50
2019-04-20T22:07:28.650Z,64.40
2019-04-20T22:12:45.068Z,64.60
2019-04-20T22:17:46.669Z,64.40
2019-04-20T22:23:09.069Z,64.40
2019-04-20T22:28:04.069Z,64.80
2019-04-20T22:33:25.015Z,65.40
2019-04-20T22:39:05.083Z,65.60
2019-04-20T22:44:15.184Z,65.90
2019-04-20T22:49:35.962Z,66.30
2019-04-20T22:54:47.805Z,66.60
2019-04-20T22:59:50.563Z,66.50
2019-04-20T23:04:53.124Z,66.80
2019-04-20T23:10:03.780Z,67.00
2019-04-20T23:15:10.440Z,67.50
2019-04-20T23:20:24.624Z,67.70
2019-04-20T23:25:27.033Z,67.80
2019-04-20T23:30:37.342Z,68.10
2019-04-20T23:35:46.187Z,68.10
2019-04-20T23:40:50.040Z,67.90
2019-04-20T23:46:21.367Z,68.40
2019-04-20T23:51:49.932Z,68.50
2019-04-20T23:56:33.435Z,68.30
